Time;durP1;ratioP1;P1;durP2;ratioP2;P2;SDS_P1;SDS_P2;PMS_P1;PMS_P2;Temp;Humidity;BMP_temperature;BMP_pressure;BME280_temperature;BME280_humidity;BME280_pressure;Samples;Min_cycle;Max_cycle;Signal;HPM_P1;HPM_P2
2022/10/21 00:01:21;;;;;;;9.77;9.27;;;;;;;1.84;100.00;101974.16;5084422;28;20536;-64
2022/10/21 00:03:46;;;;;;;10.27;9.68;;;;;;;1.82;100.00;101972.53;5084510;28;20359;-64
2022/10/21 00:06:12;;;;;;;10.48;9.88;;;;;;;1.79;100.00;101984.03;5088910;28;20142;-64
2022/10/21 00:08:38;;;;;;;10.70;10.10;;;;;;;1.87;100.00;101973.16;5088499;28;20028;-64
2022/10/21 00:11:06;;;;;;;10.00;9.50;;;;;;;1.83;100.00;101975.06;5077007;28;20031;-64
2022/10/21 00:13:33;;;;;;;9.90;9.40;;;;;;;1.91;100.00;101966.84;5085417;28;20505;-64
2022/10/21 00:16:06;;;;;;;9.75;9.25;;;;;;;1.86;100.00;101966.22;5085095;28;20052;-65
2022/10/21 00:18:33;;;;;;;10.20;9.65;;;;;;;1.81;100.00;101971.69;5081988;28;20027;-64
2022/10/21 00:20:59;;;;;;;10.23;9.63;;;;;;;1.65;100.00;101970.84;5079891;28;20460;-64
2022/10/21 00:23:25;;;;;;;10.15;9.63;;;;;;;1.67;100.00;101966.38;5087797;28;20336;-67
2022/10/21 00:25:55;;;;;;;10.25;9.70;;;;;;;1.75;100.00;101963.34;5089162;28;20099;-64
2022/10/21 00:28:21;;;;;;;9.68;9.18;;;;;;;1.79;100.00;101954.41;5088085;28;20016;-64
2022/10/21 00:30:46;;;;;;;10.57;9.98;;;;;;;1.79;100.00;101950.00;5081040;28;20031;-64
2022/10/21 00:33:12;;;;;;;9.82;9.32;;;;;;;1.76;100.00;101951.94;5083668;28;20044;-63
2022/10/21 00:35:38;;;;;;;10.20;9.60;;;;;;;1.75;100.00;101948.47;5083327;28;20406;-65
2022/10/21 00:38:04;;;;;;;10.18;9.63;;;;;;;1.74;100.00;101951.19;5078792;28;20035;-63
2022/10/21 00:40:30;;;;;;;10.20;9.60;;;;;;;1.70;100.00;101953.13;5083371;28;20016;-63
2022/10/21 00:42:56;;;;;;;9.95;9.45;;;;;;;1.73;100.00;101947.72;5082418;28;20026;-64
2022/10/21 00:45:27;;;;;;;9.98;9.48;;;;;;;1.62;100.00;101947.47;5084558;28;20024;-64
2022/10/21 00:48:00;;;;;;;9.82;9.32;;;;;;;1.56;100.00;101937.34;5082240;28;20020;-64
2022/10/21 00:50:36;;;;;;;9.85;9.35;;;;;;;1.52;100.00;101939.25;5084886;28;20506;-64
2022/10/21 00:53:03;;;;;;;10.48;9.88;;;;;;;1.55;100.00;101943.50;5078886;28;20437;-65
2022/10/21 00:55:33;;;;;;;10.45;9.85;;;;;;;1.51;100.00;101940.19;5084130;28;20081;-65
2022/10/21 00:58:00;;;;;;;9.73;9.23;;;;;;;1.41;100.00;101933.75;5083228;28;20169;-65
2022/10/21 01:00:25;;;;;;;9.95;9.45;;;;;;;1.37;100.00;101934.84;5080886;28;20027;-65
2022/10/21 01:02:51;;;;;;;10.02;9.48;;;;;;;1.45;100.00;101935.28;5080571;28;20069;-64
2022/10/21 01:05:17;;;;;;;10.30;9.70;;;;;;;1.39;100.00;101935.59;5088025;28;20184;-64
2022/10/21 01:07:46;;;;;;;10.32;9.73;;;;;;;1.36;100.00;101934.00;5081748;28;20113;-64
2022/10/21 01:10:11;;;;;;;10.85;10.23;;;;;;;1.42;100.00;101942.44;5085062;28;20028;-63
2022/10/21 01:12:55;;;;;;;10.45;9.85;;;;;;;1.34;100.00;101940.25;5081184;28;20309;-64
2022/10/21 01:15:47;;;;;;;10.40;9.80;;;;;;;1.36;100.00;101941.00;5084925;28;20032;-64
2022/10/21 01:18:47;;;;;;;11.02;10.35;;;;;;;1.32;100.00;101944.69;5079982;28;20039;-63
2022/10/21 01:21:39;;;;;;;10.18;9.60;;;;;;;1.34;100.00;101930.63;5078171;28;20028;-64
2022/10/21 01:24:32;;;;;;;9.60;9.10;;;;;;;1.34;100.00;101929.78;5083184;28;20020;-64
2022/10/21 01:27:16;;;;;;;9.98;9.45;;;;;;;1.31;100.00;101937.78;5084088;28;20028;-64
2022/10/21 01:30:08;;;;;;;10.43;9.83;;;;;;;1.25;100.00;101933.72;5082758;28;22011;-65
2022/10/21 01:32:49;;;;;;;10.45;9.85;;;;;;;1.20;100.00;101932.28;5086378;28;20028;-64
2022/10/21 01:35:17;;;;;;;10.20;9.63;;;;;;;1.14;100.00;101914.28;5083104;28;20031;-65
2022/10/21 01:38:10;;;;;;;10.20;9.63;;;;;;;1.26;100.00;101930.19;5079644;28;20035;-65
2022/10/21 01:40:57;;;;;;;9.88;9.38;;;;;;;1.26;100.00;101926.72;5079095;28;20040;-65
2022/10/21 01:43:36;;;;;;;10.45;9.85;;;;;;;1.22;100.00;101927.81;5085041;28;20395;-64
2022/10/21 01:46:16;;;;;;;10.07;9.52;;;;;;;1.13;100.00;101934.34;5083485;28;20099;-64
2022/10/21 01:48:53;;;;;;;11.00;10.30;;;;;;;1.22;100.00;101920.81;5081566;28;20032;-65
2022/10/21 01:51:21;;;;;;;9.88;9.38;;;;;;;1.24;100.00;101923.31;5096399;28;20036;-63
2022/10/21 01:54:00;;;;;;;9.75;9.25;;;;;;;1.15;100.00;101923.81;5082977;28;20437;-64
2022/10/21 01:56:27;;;;;;;10.27;9.68;;;;;;;1.18;100.00;101927.13;5077699;28;20051;-64
2022/10/21 01:58:53;;;;;;;10.40;9.80;;;;;;;1.15;100.00;101926.44;5083261;28;20111;-64
2022/10/21 02:01:21;;;;;;;9.88;9.38;;;;;;;1.07;100.00;101925.06;5083161;28;20024;-64
2022/10/21 02:03:51;;;;;;;10.23;9.63;;;;;;;1.04;100.00;101929.63;5084424;28;20388;-62
2022/10/21 02:06:17;;;;;;;10.25;9.65;;;;;;;1.04;100.00;101935.69;5089187;28;20053;-64
2022/10/21 02:08:43;;;;;;;10.23;9.63;;;;;;;1.01;100.00;101929.75;5086169;28;20051;-63
2022/10/21 02:11:11;;;;;;;9.88;9.38;;;;;;;0.99;100.00;101929.00;5089601;28;20026;-64
2022/10/21 02:13:52;;;;;;;10.18;9.60;;;;;;;1.00;100.00;101930.69;5088104;28;20536;-65
2022/10/21 02:16:24;;;;;;;10.40;9.80;;;;;;;0.85;100.00;101927.09;5083495;28;20024;-64
2022/10/21 02:18:49;;;;;;;10.02;9.50;;;;;;;0.83;100.00;101916.72;5086417;28;20035;-63
2022/10/21 02:21:21;;;;;;;9.98;9.48;;;;;;;0.92;100.00;101923.25;5086816;28;20032;-65
2022/10/21 02:23:57;;;;;;;10.65;10.02;;;;;;;0.88;100.00;101926.06;5083779;28;20035;-64
2022/10/21 02:26:25;;;;;;;9.75;9.25;;;;;;;0.92;100.00;101928.47;5085176;28;20027;-64
2022/10/21 02:28:52;;;;;;;11.30;10.60;;;;;;;0.95;100.00;101922.22;5084957;28;20111;-64
2022/10/21 02:31:20;;;;;;;9.48;8.98;;;;;;;0.79;100.00;101930.00;5083636;28;20028;-64
2022/10/21 02:33:46;;;;;;;11.02;10.35;;;;;;;0.79;100.00;101927.38;5085961;28;20031;-63
2022/10/21 02:36:16;;;;;;;10.30;9.70;;;;;;;0.77;100.00;101922.25;5087896;28;20443;-63
2022/10/21 02:38:50;;;;;;;10.43;9.82;;;;;;;0.72;100.00;101918.16;5088765;28;20028;-64
2022/10/21 02:41:17;;;;;;;;;;;;;;;0.68;100.00;101898.38;5088281;28;20034;-64
2022/10/21 02:43:48;;;;;;;10.60;9.95;;;;;;;0.62;100.00;101923.03;5083692;28;19911;-64
2022/10/21 02:46:14;;;;;;;9.68;9.18;;;;;;;0.63;100.00;101927.31;5086418;28;20032;-63
2022/10/21 02:48:46;;;;;;;10.10;9.55;;;;;;;0.70;100.00;101926.09;5083551;28;20028;-64
2022/10/21 02:51:13;;;;;;;10.15;9.55;;;;;;;0.74;100.00;101935.47;5082216;28;20040;-65
2022/10/21 02:53:38;;;;;;;10.05;9.45;;;;;;;0.78;100.00;101931.78;5084867;28;20024;-65
2022/10/21 02:56:04;;;;;;;10.23;9.63;;;;;;;0.75;100.00;101938.94;5088826;28;20061;-66
2022/10/21 02:58:30;;;;;;;9.75;9.25;;;;;;;0.67;100.00;101928.88;5087990;28;20509;-65
2022/10/21 03:00:56;;;;;;;9.40;8.90;;;;;;;0.69;100.00;101921.78;5087368;28;20056;-65
2022/10/21 03:03:22;;;;;;;9.70;9.20;;;;;;;0.52;100.00;101916.56;5082019;28;20031;-64
2022/10/21 03:05:48;;;;;;;11.45;10.70;;;;;;;0.59;100.00;101915.34;5082109;28;20021;-64
2022/10/21 03:08:13;;;;;;;10.30;9.70;;;;;;;0.63;100.00;101914.25;5091096;28;20039;-64
2022/10/21 03:10:39;;;;;;;10.02;9.48;;;;;;;0.56;100.00;101910.25;5083520;28;20166;-64
2022/10/21 03:13:04;;;;;;;9.60;9.10;;;;;;;0.53;100.00;101910.44;5086712;28;20028;-63
2022/10/21 03:15:30;;;;;;;9.60;9.10;;;;;;;0.53;100.00;101907.81;5084426;28;20020;-65
2022/10/21 03:17:55;;;;;;;9.75;9.25;;;;;;;0.50;100.00;101902.72;5086990;28;20131;-65
2022/10/21 03:20:21;;;;;;;9.65;9.15;;;;;;;0.51;100.00;101904.41;5085243;28;20023;-65
2022/10/21 03:22:46;;;;;;;10.60;10.00;;;;;;;0.43;100.00;101912.63;5083677;28;20099;-64
2022/10/21 03:25:12;;;;;;;10.00;9.50;;;;;;;0.42;100.00;101907.47;5079576;28;20055;-63
2022/10/21 03:27:38;;;;;;;10.48;9.88;;;;;;;0.38;100.00;101916.41;5084347;28;20056;-64
2022/10/21 03:30:05;;;;;;;10.73;10.13;;;;;;;0.33;100.00;101921.84;5079928;28;20034;-64
2022/10/21 03:32:30;;;;;;;10.80;10.20;;;;;;;0.33;100.00;101911.41;5078901;28;20376;-64
2022/10/21 03:34:56;;;;;;;10.40;9.80;;;;;;;0.26;100.00;101910.84;5085532;28;20027;-63
2022/10/21 03:37:21;;;;;;;10.48;9.88;;;;;;;0.24;100.00;101912.69;5086036;28;20731;-64
2022/10/21 03:39:47;;;;;;;10.70;10.10;;;;;;;0.19;100.00;101909.44;5086752;28;20500;-64
2022/10/21 03:42:14;;;;;;;10.30;9.70;;;;;;;0.17;100.00;101919.13;5080909;28;20492;-64
2022/10/21 03:44:40;;;;;;;10.10;9.55;;;;;;;0.13;100.00;101925.41;5080123;28;20024;-64
2022/10/21 03:47:06;;;;;;;10.48;9.88;;;;;;;0.17;100.00;101907.84;5081662;28;20027;-64
2022/10/21 03:49:31;;;;;;;10.27;9.68;;;;;;;0.18;100.00;101910.38;5083662;28;20070;-64
2022/10/21 03:51:57;;;;;;;10.80;10.20;;;;;;;0.14;100.00;101906.22;5085596;28;20035;-65
2022/10/21 03:54:22;;;;;;;10.93;10.27;;;;;;;0.13;100.00;101901.91;5074864;28;20048;-64
2022/10/21 03:56:48;;;;;;;10.50;9.90;;;;;;;0.00;100.00;101903.44;5082979;28;20077;-64
2022/10/21 03:59:13;;;;;;;10.80;10.20;;;;;;;0.02;100.00;101906.81;5083040;28;20024;-64
2022/10/21 04:01:40;;;;;;;11.07;10.38;;;;;;;0.11;100.00;101898.53;5087415;28;20043;-66
2022/10/21 04:04:06;;;;;;;11.27;10.57;;;;;;;0.10;100.00;101904.69;5079866;28;20487;-64
2022/10/21 04:06:32;;;;;;;10.15;9.57;;;;;;;0.15;100.00;101901.88;5084081;28;20141;-64
2022/10/21 04:08:57;;;;;;;10.10;9.52;;;;;;;0.11;100.00;101898.53;5084522;28;20040;-64
2022/10/21 04:11:23;;;;;;;10.25;9.65;;;;;;;0.07;100.00;101902.19;5077667;28;20029;-64
2022/10/21 04:13:48;;;;;;;11.02;10.32;;;;;;;0.00;100.00;101898.22;5083770;28;20082;-64
2022/10/21 04:16:17;;;;;;;11.55;10.85;;;;;;;0.02;100.00;101896.38;5079575;28;20036;-63
2022/10/21 04:18:43;;;;;;;11.13;10.43;;;;;;;0.10;100.00;101891.63;5084903;28;20024;-64
2022/10/21 04:21:08;;;;;;;10.48;9.88;;;;;;;0.08;100.00;101888.28;5085246;28;20081;-63
2022/10/21 04:23:34;;;;;;;10.30;9.70;;;;;;;0.20;100.00;101892.88;5082741;28;20468;-63
2022/10/21 04:26:00;;;;;;;11.85;11.05;;;;;;;0.11;100.00;101895.09;5081883;28;20046;-63
2022/10/21 04:28:25;;;;;;;10.38;9.77;;;;;;;0.15;100.00;101902.72;5082210;28;20060;-64
2022/10/21 04:30:51;;;;;;;10.52;9.93;;;;;;;0.28;100.00;101898.56;5082553;28;20115;-63
2022/10/21 04:33:16;;;;;;;10.13;9.52;;;;;;;0.11;100.00;101898.53;5088213;28;20024;-64
2022/10/21 04:35:42;;;;;;;10.95;10.30;;;;;;;0.19;100.00;101903.41;5085579;28;20036;-63
2022/10/21 04:38:08;;;;;;;10.48;9.88;;;;;;;0.25;100.00;101901.34;5087699;28;20038;-64
2022/10/21 04:40:33;;;;;;;10.60;10.00;;;;;;;0.62;100.00;101899.50;5085602;28;20027;-64
2022/10/21 04:42:59;;;;;;;10.23;9.63;;;;;;;0.98;100.00;101903.78;5083140;28;20077;-64
2022/10/21 04:45:24;;;;;;;9.82;9.27;;;;;;;1.57;100.00;101898.00;5080333;28;20479;-65
2022/10/21 04:47:50;;;;;;;10.20;9.60;;;;;;;1.70;100.00;101892.13;5081766;28;20031;-66
2022/10/21 04:50:15;;;;;;;9.90;9.30;;;;;;;2.11;100.00;101888.03;5083211;28;20149;-64
2022/10/21 04:52:41;;;;;;;9.60;9.10;;;;;;;2.54;100.00;101885.56;5082534;28;20066;-64
2022/10/21 04:55:07;;;;;;;8.90;8.43;;;;;;;2.63;100.00;101874.53;5079044;28;20064;-64
2022/10/21 04:57:32;;;;;;;9.30;8.80;;;;;;;2.83;100.00;101886.47;5083564;28;20020;-64
2022/10/21 04:59:58;;;;;;;10.27;9.68;;;;;;;3.22;100.00;101885.84;5081149;28;20533;-65
2022/10/21 05:02:23;;;;;;;9.13;8.63;;;;;;;3.50;100.00;101877.09;5068627;28;20067;-65
2022/10/21 05:04:49;;;;;;;9.68;9.18;;;;;;;4.19;100.00;101874.47;5076523;28;20048;-64
2022/10/21 05:07:14;;;;;;;9.63;9.13;;;;;;;4.53;100.00;101881.81;5077358;28;20036;-65
2022/10/21 05:09:40;;;;;;;10.02;9.50;;;;;;;4.70;100.00;101883.31;5085182;28;20475;-65
2022/10/21 05:12:05;;;;;;;9.50;9.00;;;;;;;5.31;100.00;101896.69;5085394;28;20028;-65
2022/10/21 05:14:30;;;;;;;9.65;9.15;;;;;;;5.79;100.00;101895.84;5088300;28;20331;-66
2022/10/21 05:16:56;;;;;;;9.82;9.32;;;;;;;6.50;100.00;101883.63;5079815;28;20034;-69
2022/10/21 05:19:21;;;;;;;8.82;8.43;;;;;;;7.60;100.00;101890.94;5082853;28;20059;-65
2022/10/21 05:21:47;;;;;;;9.60;9.10;;;;;;;9.61;100.00;101880.28;5084119;28;20025;-66
2022/10/21 05:24:15;;;;;;;10.07;9.57;;;;;;;11.43;99.92;101871.47;5079533;28;20575;-66
2022/10/21 05:26:41;;;;;;;10.32;9.82;;;;;;;11.23;93.71;101882.16;5082318;28;20024;-65
2022/10/21 05:29:06;;;;;;;10.57;10.07;;;;;;;13.30;83.95;101901.63;5084461;28;20356;-67
2022/10/21 05:31:32;;;;;;;9.90;9.43;;;;;;;13.91;72.85;101888.03;5080600;28;20032;-67
2022/10/21 05:33:57;;;;;;;10.23;9.73;;;;;;;14.94;64.88;101899.09;5082239;28;20032;-66
2022/10/21 05:36:23;;;;;;;10.10;9.60;;;;;;;15.56;58.82;101893.88;5091709;28;20024;-69
2022/10/21 05:38:48;;;;;;;10.23;9.73;;;;;;;15.65;55.64;101903.59;5092204;28;20024;-65
2022/10/21 05:41:15;;;;;;;10.40;9.90;;;;;;;16.63;51.21;101910.97;5085898;28;20059;-65
2022/10/21 05:43:40;;;;;;;10.40;9.90;;;;;;;17.31;49.48;101901.91;5086490;28;20598;-65
2022/10/21 05:46:07;;;;;;;10.10;9.63;;;;;;;17.95;46.21;101901.31;5083242;28;20024;-65
2022/10/21 05:48:34;;;;;;;10.88;10.38;;;;;;;18.64;44.55;101900.72;5083727;28;20428;-65
2022/10/21 05:50:59;;;;;;;9.77;9.38;;;;;;;18.88;43.92;101910.25;5076462;28;20044;-64
2022/10/21 05:53:24;;;;;;;10.20;9.70;;;;;;;19.58;41.34;101910.06;5082711;28;20030;-65
2022/10/21 05:55:57;;;;;;;10.55;10.05;;;;;;;18.31;41.28;101903.13;5093413;28;20054;-64
2022/10/21 05:58:24;;;;;;;10.75;10.25;;;;;;;18.85;41.94;101913.31;5089031;28;20471;-65
2022/10/21 06:00:53;;;;;;;10.65;10.15;;;;;;;19.88;39.78;101917.84;5086226;28;20027;-65
2022/10/21 06:03:23;;;;;;;10.73;10.23;;;;;;;19.75;39.55;101923.19;5090870;28;20382;-65
2022/10/21 06:05:49;;;;;;;10.80;10.30;;;;;;;20.13;38.72;101915.44;5081455;28;20023;-65
2022/10/21 06:08:16;;;;;;;10.23;9.80;;;;;;;20.94;37.29;101909.91;5086659;28;20169;-65
2022/10/21 06:10:42;;;;;;;10.25;9.82;;;;;;;21.32;36.14;101906.53;5082282;28;20048;-64
2022/10/21 06:13:07;;;;;;;10.10;9.70;;;;;;;21.90;35.75;101901.09;5086638;28;20024;-65
2022/10/21 06:15:33;;;;;;;10.35;9.88;;;;;;;22.00;34.83;101910.38;5075153;28;20028;-65
2022/10/21 06:17:58;;;;;;;10.18;9.75;;;;;;;21.65;35.03;101912.63;5082501;28;20016;-64
2022/10/21 06:20:24;;;;;;;10.38;9.90;;;;;;;19.99;36.38;101898.41;5081559;28;20497;-65
2022/10/21 06:22:51;;;;;;;10.10;9.70;;;;;;;21.85;35.62;101895.50;5082712;28;20500;-66
2022/10/21 06:25:16;;;;;;;10.15;9.75;;;;;;;23.04;33.64;101902.75;5078645;28;20388;-65
2022/10/21 06:27:41;;;;;;;10.15;9.75;;;;;;;23.31;32.19;101906.84;5088173;28;20024;-67
2022/10/21 06:30:08;;;;;;;10.20;9.80;;;;;;;22.95;32.20;101901.41;5082607;28;20024;-65
2022/10/21 06:32:34;;;;;;;10.27;9.88;;;;;;;23.99;32.05;101905.78;5082288;28;20404;-64
2022/10/21 06:35:00;;;;;;;10.60;10.10;;;;;;;23.50;30.80;101910.34;5080948;28;20025;-65
2022/10/21 06:37:25;;;;;;;10.30;9.90;;;;;;;24.35;30.86;101906.75;5087066;28;20111;-65
2022/10/21 06:39:51;;;;;;;10.30;9.90;;;;;;;23.44;32.66;101917.53;5089225;28;20020;-65
2022/10/21 06:42:16;;;;;;;10.23;9.82;;;;;;;23.75;31.89;101913.00;5086168;28;20161;-64
2022/10/21 06:44:41;;;;;;;10.50;10.00;;;;;;;22.57;32.00;101899.63;5084998;28;20141;-64
2022/10/21 06:47:07;;;;;;;10.60;10.10;;;;;;;23.85;31.42;101907.84;5079860;28;20024;-65
2022/10/21 06:49:33;;;;;;;10.45;9.95;;;;;;;24.11;30.44;101900.41;5089185;28;20126;-65
2022/10/21 06:51:58;;;;;;;10.60;10.10;;;;;;;22.97;32.26;101904.69;5085181;28;20034;-66
2022/10/21 06:54:25;;;;;;;10.10;9.70;;;;;;;24.29;31.89;101894.91;5081275;28;20028;-65
2022/10/21 06:56:51;;;;;;;10.10;9.70;;;;;;;23.37;30.93;101899.69;5084841;28;20135;-65
2022/10/21 06:59:16;;;;;;;9.90;9.50;;;;;;;24.64;31.07;101900.41;5083956;28;20503;-65
2022/10/21 07:01:42;;;;;;;10.30;9.90;;;;;;;24.74;30.05;101895.22;5087162;28;20044;-65
2022/10/21 07:04:08;;;;;;;10.48;10.00;;;;;;;24.90;29.99;101895.56;5082924;28;20037;-64
2022/10/21 07:06:34;;;;;;;10.10;9.70;;;;;;;25.10;30.05;101901.50;5085977;28;20484;-65
2022/10/21 07:08:59;;;;;;;10.23;9.82;;;;;;;24.47;29.99;101911.16;5083106;28;20023;-66
2022/10/21 07:11:26;;;;;;;10.07;9.68;;;;;;;24.72;30.46;101913.63;5085494;28;20059;-64
2022/10/21 07:13:52;;;;;;;10.18;9.77;;;;;;;23.44;31.21;101920.22;5079950;28;20028;-65
2022/10/21 07:16:24;;;;;;;10.38;9.93;;;;;;;23.44;31.76;101922.94;5087262;28;20029;-64
2022/10/21 07:18:49;;;;;;;10.00;9.60;;;;;;;23.00;31.54;101921.34;5080129;28;20113;-64
2022/10/21 07:21:17;;;;;;;10.50;10.00;;;;;;;23.74;31.09;101922.19;5081573;28;20031;-66
2022/10/21 07:23:45;;;;;;;10.40;9.90;;;;;;;23.78;31.09;101920.66;5083774;28;20031;-65
2022/10/21 07:26:11;;;;;;;10.30;9.90;;;;;;;22.93;32.01;101922.44;5079430;28;20027;-64
2022/10/21 07:28:37;;;;;;;10.20;9.80;;;;;;;22.44;32.79;101921.38;5087724;28;20084;-66
2022/10/21 07:31:04;;;;;;;10.10;9.70;;;;;;;23.50;31.85;101926.59;5082924;28;20046;-65
2022/10/21 07:33:32;;;;;;;10.23;9.82;;;;;;;22.63;32.01;101925.81;5079283;28;20455;-66
2022/10/21 07:36:23;;;;;;;10.20;9.80;;;;;;;22.95;32.55;101929.28;5087910;28;20027;-65
2022/10/21 07:38:50;;;;;;;10.20;9.80;;;;;;;23.09;31.58;101932.69;5083424;28;20040;-65
2022/10/21 07:41:28;;;;;;;9.80;9.40;;;;;;;22.34;32.57;101930.78;5084398;28;20031;-64
2022/10/21 07:43:54;;;;;;;10.13;9.73;;;;;;;22.32;32.34;101932.03;5081229;28;20031;-64
2022/10/21 07:46:20;;;;;;;10.30;9.90;;;;;;;22.00;33.21;101926.59;5088503;28;20384;-65
2022/10/21 07:48:46;;;;;;;10.85;10.35;;;;;;;21.62;34.19;101923.88;5079654;28;20073;-64
2022/10/21 07:51:15;;;;;;;10.43;9.93;;;;;;;22.70;32.88;101920.34;5086379;28;20660;-65
2022/10/21 07:53:40;;;;;;;10.45;9.95;;;;;;;23.15;32.66;101920.97;5083173;28;20028;-65
2022/10/21 07:56:14;;;;;;;10.23;9.82;;;;;;;22.10;33.52;101920.75;5076687;28;20044;-64
2022/10/21 07:58:39;;;;;;;10.05;9.65;;;;;;;20.55;34.44;101919.66;5077742;28;20024;-65
2022/10/21 08:01:06;;;;;;;10.38;9.95;;;;;;;21.78;34.16;101926.09;5087994;28;20027;-65
2022/10/21 08:03:32;;;;;;;10.30;9.90;;;;;;;22.43;33.10;101915.13;5083086;28;20115;-65
2022/10/21 08:05:58;;;;;;;10.73;10.23;;;;;;;21.70;34.71;101918.22;5076876;28;20021;-65
2022/10/21 08:08:25;;;;;;;10.02;9.63;;;;;;;21.84;34.59;101910.91;5082651;28;20213;-65
2022/10/21 08:10:51;;;;;;;10.35;9.90;;;;;;;20.78;33.99;101911.16;5083959;28;20069;-65
2022/10/21 08:13:17;;;;;;;10.30;9.85;;;;;;;22.18;33.60;101908.84;5079156;28;20038;-65
2022/10/21 08:15:48;;;;;;;10.50;10.00;;;;;;;23.59;31.94;101905.47;5082086;28;20029;-64
2022/10/21 08:18:14;;;;;;;9.98;9.57;;;;;;;21.87;33.54;101883.44;5086473;28;20039;-65
2022/10/21 08:20:42;;;;;;;10.20;9.80;;;;;;;21.80;33.65;101883.47;5088230;28;20392;-65
2022/10/21 08:23:10;;;;;;;10.48;9.98;;;;;;;20.50;34.12;101887.13;5081675;28;20031;-66
2022/10/21 08:25:36;;;;;;;10.00;9.60;;;;;;;20.87;34.95;101888.34;5081656;28;20095;-65
2022/10/21 08:28:03;;;;;;;9.93;9.52;;;;;;;22.24;33.29;101889.88;5082136;28;20017;-63
2022/10/21 08:30:30;;;;;;;10.52;10.02;;;;;;;23.00;32.73;101877.22;5076716;28;20024;-64
2022/10/21 08:32:59;;;;;;;10.70;10.20;;;;;;;21.14;34.90;101869.38;5083046;28;20511;-65
2022/10/21 08:35:27;;;;;;;10.13;9.73;;;;;;;21.69;33.70;101870.66;5081331;28;20036;-64
2022/10/21 08:37:52;;;;;;;10.07;9.68;;;;;;;21.14;34.10;101864.81;5075779;28;20032;-64
2022/10/21 08:40:19;;;;;;;10.27;9.85;;;;;;;21.95;33.77;101852.63;5083639;28;20537;-64
2022/10/21 08:42:45;;;;;;;10.10;9.70;;;;;;;22.86;33.12;101855.69;5079883;28;20031;-65
2022/10/21 08:45:36;;;;;;;9.90;9.50;;;;;;;20.40;34.21;101847.03;5082164;28;20016;-65
2022/10/21 08:48:06;;;;;;;9.90;9.50;;;;;;;23.37;31.74;101854.50;5083627;28;20043;-65
2022/10/21 08:50:41;;;;;;;9.93;9.52;;;;;;;23.20;31.65;101858.84;5077837;28;20404;-64
2022/10/21 08:53:20;;;;;;;10.20;9.80;;;;;;;22.34;31.36;101857.78;5082444;28;20035;-65
2022/10/21 08:55:47;;;;;;;10.10;9.70;;;;;;;20.60;34.12;101844.38;5084125;28;20573;-64
2022/10/21 08:58:23;;;;;;;10.13;9.73;;;;;;;22.81;31.61;101849.25;5083633;28;20482;-64
2022/10/21 09:01:11;;;;;;;10.20;9.80;;;;;;;23.39;30.52;101857.78;5072655;28;20039;-64
2022/10/21 09:03:45;;;;;;;10.05;9.65;;;;;;;23.48;30.47;101846.63;5082336;28;20036;-64
2022/10/21 09:06:30;;;;;;;9.73;9.32;;;;;;;22.45;32.02;101850.84;5080176;28;20023;-65
2022/10/21 09:09:27;;;;;;;10.18;9.77;;;;;;;21.84;31.70;101845.22;5078750;28;20031;-65
2022/10/21 09:12:23;;;;;;;10.02;9.63;;;;;;;22.61;31.02;101852.13;5075476;28;20086;-65
2022/10/21 09:14:53;;;;;;;10.50;10.00;;;;;;;23.02;31.16;101851.56;5077341;28;20069;-65
2022/10/21 09:17:31;;;;;;;9.93;9.52;;;;;;;20.13;33.81;101851.59;5080928;28;20090;-63
2022/10/21 09:19:59;;;;;;;9.90;9.50;;;;;;;18.17;37.17;101849.28;5084151;28;20035;-64
2022/10/21 09:22:40;;;;;;;10.40;9.90;;;;;;;17.20;39.27;101847.94;5080267;28;20115;-65
2022/10/21 09:25:31;;;;;;;10.77;10.27;;;;;;;16.69;41.11;101845.97;5076840;28;20093;-65
2022/10/21 09:27:58;;;;;;;11.18;10.68;;;;;;;16.85;41.46;101840.44;5078963;28;20507;-64
2022/10/21 09:30:24;;;;;;;10.73;10.23;;;;;;;16.01;44.17;101831.63;5078413;28;20046;-64
2022/10/21 09:32:58;;;;;;;10.90;10.40;;;;;;;15.83;48.38;101827.56;5082805;28;20508;-64
2022/10/21 09:35:35;;;;;;;10.63;10.13;;;;;;;14.15;59.34;101820.50;5076697;28;20024;-64
2022/10/21 09:38:19;;;;;;;11.00;10.50;;;;;;;13.87;66.72;101829.81;5076052;28;20740;-64
2022/10/21 09:40:49;;;;;;;11.48;10.93;;;;;;;13.59;70.25;101816.78;5082509;28;20040;-65
2022/10/21 09:43:19;;;;;;;11.15;10.65;;;;;;;14.08;64.66;101822.16;5084964;28;20391;-65
2022/10/21 09:45:45;;;;;;;12.00;11.40;;;;;;;13.70;70.21;101815.63;5077995;28;20016;-64
2022/10/21 09:48:17;;;;;;;10.60;10.10;;;;;;;12.82;80.84;101821.25;5074643;28;20036;-65
2022/10/21 09:50:55;;;;;;;11.38;10.77;;;;;;;13.11;78.69;101814.72;5085185;28;20521;-64
2022/10/21 09:53:24;;;;;;;10.30;9.80;;;;;;;12.54;81.22;101806.41;5075677;28;20513;-67
2022/10/21 09:55:57;;;;;;;10.68;10.18;;;;;;;12.88;84.79;101804.63;5081548;28;20534;-65
2022/10/21 09:58:35;;;;;;;10.70;10.20;;;;;;;12.56;84.66;101804.41;5080218;28;20027;-65
2022/10/21 10:01:02;;;;;;;10.98;10.48;;;;;;;12.18;87.01;101804.66;5084173;28;20031;-65
2022/10/21 10:03:30;;;;;;;10.32;9.82;;;;;;;12.37;91.08;101794.81;5084306;28;20024;-64
2022/10/21 10:05:57;;;;;;;10.60;10.10;;;;;;;12.10;90.75;101798.44;5084949;28;20028;-65
2022/10/21 10:08:48;;;;;;;10.55;10.05;;;;;;;11.13;97.51;101792.91;5080712;28;20023;-65
2022/10/21 10:11:17;;;;;;;10.63;10.13;;;;;;;12.05;95.12;101784.78;5079361;28;20037;-64
2022/10/21 10:13:51;;;;;;;11.40;10.80;;;;;;;11.36;96.42;101783.56;5083468;28;20627;-65
2022/10/21 10:16:30;;;;;;;10.73;10.23;;;;;;;11.86;98.46;101785.75;5080373;28;20111;-63
2022/10/21 10:19:15;;;;;;;10.10;9.60;;;;;;;11.04;100.00;101773.38;5080284;28;20024;-64
2022/10/21 10:21:41;;;;;;;11.10;10.50;;;;;;;11.32;100.00;101767.09;5077098;28;20031;-64
2022/10/21 10:24:15;;;;;;;10.20;9.70;;;;;;;11.42;98.80;101769.66;5077288;28;20391;-65
2022/10/21 10:26:41;;;;;;;10.00;9.50;;;;;;;11.46;98.61;101752.47;5085782;28;20054;-65
2022/10/21 10:29:13;;;;;;;10.63;10.13;;;;;;;11.52;100.00;101767.78;5087449;28;20057;-65
2022/10/21 10:31:46;;;;;;;11.00;10.40;;;;;;;11.42;99.37;101760.88;5086926;28;20039;-65
2022/10/21 10:34:21;;;;;;;9.82;9.32;;;;;;;11.79;98.65;101750.09;5087408;28;20113;-65
2022/10/21 10:36:47;;;;;;;10.73;10.23;;;;;;;11.40;96.86;101741.59;5082462;28;20454;-65
2022/10/21 10:39:29;;;;;;;11.45;10.85;;;;;;;11.82;96.75;101739.19;5088697;28;20035;-64
2022/10/21 10:41:55;;;;;;;10.68;10.18;;;;;;;11.80;96.52;101726.03;5081281;28;20031;-64
2022/10/21 10:44:31;;;;;;;10.60;10.10;;;;;;;11.67;94.04;101716.75;5083757;28;20034;-65
2022/10/21 10:47:00;;;;;;;10.30;9.80;;;;;;;12.03;94.49;101722.91;5079656;28;20085;-64
2022/10/21 10:49:32;;;;;;;10.63;10.13;;;;;;;11.94;93.46;101723.84;5078943;28;20024;-65
2022/10/21 10:52:10;;;;;;;10.20;9.70;;;;;;;12.23;92.01;101729.69;5080200;28;20024;-64
2022/10/21 10:54:37;;;;;;;10.57;10.07;;;;;;;11.81;91.58;101724.22;5082398;28;20025;-65
2022/10/21 10:57:17;;;;;;;9.95;9.45;;;;;;;11.50;94.25;101715.78;5086618;28;20176;-64
2022/10/21 10:59:55;;;;;;;11.40;10.80;;;;;;;11.96;92.92;101714.69;5084397;28;20384;-65
2022/10/21 11:02:33;;;;;;;10.43;9.93;;;;;;;12.24;89.76;101706.59;5080216;28;20032;-64
2022/10/21 11:05:36;;;;;;;10.63;10.07;;;;;;;12.37;88.15;101709.66;5081118;28;20024;-64
2022/10/21 11:08:15;;;;;;;10.00;9.50;;;;;;;11.53;91.66;101699.50;5078969;28;20379;-65
2022/10/21 11:10:52;;;;;;;11.32;10.73;;;;;;;11.47;91.14;101692.19;5078526;28;20424;-65
2022/10/21 11:13:21;;;;;;;11.10;10.50;;;;;;;12.30;84.23;101693.50;5083501;28;20024;-65
2022/10/21 11:16:10;;;;;;;10.48;9.98;;;;;;;12.46;81.19;101695.41;5080205;28;20090;-64
2022/10/21 11:18:43;;;;;;;10.85;10.35;;;;;;;12.81;76.41;101685.59;5078213;28;20112;-65
2022/10/21 11:21:23;;;;;;;10.38;9.88;;;;;;;13.28;76.17;101672.56;5078116;28;20436;-65
2022/10/21 11:24:27;;;;;;;10.20;9.70;;;;;;;12.65;69.97;101662.41;5087694;28;20506;-65
2022/10/21 11:27:13;;;;;;;10.70;10.20;;;;;;;12.75;67.84;101665.75;5080405;28;20032;-64
2022/10/21 11:29:43;;;;;;;10.38;9.88;;;;;;;12.36;61.79;101655.63;5083690;28;20035;-64